Time;durP1;ratioP1;P1;durP2;ratioP2;P2;SDS_P1;SDS_P2;PMS_P1;PMS_P2;Temp;Humidity;BMP_temperature;BMP_pressure;BME280_temperature;BME280_humidity;BME280_pressure;Samples;Min_cycle;Max_cycle;Signal;HPM_P1;HPM_P2
2024/03/22 00:00:55;;;;;;;8.80;6.97;;;9.70;99.90;;;;;;5064081;28;20915;-82
2024/03/22 00:03:40;;;;;;;10.83;7.73;;;9.50;99.90;;;;;;5069165;28;20523;-80
2024/03/22 00:06:25;;;;;;;13.03;8.40;;;9.50;99.90;;;;;;5066014;28;20446;-82
2024/03/22 00:09:11;;;;;;;9.00;6.73;;;9.50;99.90;;;;;;5061257;28;20796;-80
2024/03/22 00:11:56;;;;;;;9.07;7.00;;;9.60;99.90;;;;;;5062318;28;21022;-82
2024/03/22 00:14:43;;;;;;;18.53;8.37;;;9.50;99.90;;;;;;5066250;28;20514;-80
2024/03/22 00:17:27;;;;;;;11.40;8.20;;;9.50;99.90;;;;;;5066450;28;20428;-82
2024/03/22 00:20:13;;;;;;;11.50;8.20;;;9.30;99.90;;;;;;5063939;28;20561;-82
2024/03/22 00:22:57;;;;;;;10.30;7.43;;;9.30;99.90;;;;;;5064255;28;20951;-81
2024/03/22 00:25:43;;;;;;;9.30;7.20;;;9.20;99.90;;;;;;5058976;28;20456;-82
2024/03/22 00:28:28;;;;;;;11.87;7.57;;;9.20;99.90;;;;;;5061321;28;20481;-82
2024/03/22 00:31:15;;;;;;;10.20;6.87;;;9.20;99.90;;;;;;5067149;28;20491;-80
2024/03/22 00:33:59;;;;;;;8.67;7.10;;;9.30;99.90;;;;;;5061420;28;20461;-81
2024/03/22 00:36:45;;;;;;;12.60;6.87;;;9.20;99.90;;;;;;5062999;28;20450;-80
2024/03/22 00:39:30;;;;;;;9.17;7.77;;;9.20;99.90;;;;;;5062740;28;20476;-81
2024/03/22 00:42:15;;;;;;;11.57;7.47;;;9.10;99.90;;;;;;5062257;28;20816;-81
2024/03/22 00:45:00;;;;;;;8.67;7.07;;;9.10;99.90;;;;;;5067279;28;20579;-82
2024/03/22 00:47:47;;;;;;;8.70;6.67;;;9.00;99.90;;;;;;5061618;28;20430;-82
2024/03/22 00:50:32;;;;;;;11.80;7.60;;;8.90;99.90;;;;;;5065856;28;21712;-80
2024/03/22 00:53:17;;;;;;;13.10;7.67;;;8.90;99.90;;;;;;5065534;28;20781;-81
2024/03/22 00:56:02;;;;;;;11.33;7.73;;;8.80;99.90;;;;;;5066659;28;20452;-81
2024/03/22 00:58:48;;;;;;;10.20;7.67;;;8.90;99.90;;;;;;5067461;28;20507;-81
2024/03/22 01:01:33;;;;;;;11.80;7.87;;;9.00;99.90;;;;;;5062387;28;20469;-82
2024/03/22 01:04:20;;;;;;;10.03;7.30;;;9.00;99.90;;;;;;5065186;28;20470;-81
2024/03/22 01:07:05;;;;;;;10.53;7.20;;;9.00;99.90;;;;;;5069619;28;20814;-81
2024/03/22 01:09:50;;;;;;;8.03;6.67;;;9.00;99.90;;;;;;5063750;28;20596;-81
2024/03/22 01:12:35;;;;;;;12.33;7.67;;;8.90;99.90;;;;;;5062560;28;20592;-82
2024/03/22 01:15:20;;;;;;;13.90;8.23;;;8.90;99.90;;;;;;5068742;28;20973;-82
2024/03/22 01:18:05;;;;;;;9.87;7.30;;;8.80;99.90;;;;;;5069416;28;20440;-81
2024/03/22 01:20:52;;;;;;;8.70;6.60;;;8.80;99.90;;;;;;5070105;28;20496;-83
2024/03/22 01:23:37;;;;;;;13.60;8.10;;;8.70;99.90;;;;;;5064412;28;20500;-82
2024/03/22 01:26:22;;;;;;;10.40;6.43;;;8.60;99.90;;;;;;5061865;28;20485;-81
2024/03/22 01:29:07;;;;;;;10.47;6.80;;;8.60;99.90;;;;;;5077115;28;20485;-81
2024/03/22 01:31:53;;;;;;;11.20;7.33;;;8.50;99.90;;;;;;5069802;28;20571;-82
2024/03/22 01:34:38;;;;;;;8.80;6.53;;;8.40;99.90;;;;;;5078194;28;21086;-81
2024/03/22 01:37:25;;;;;;;11.40;7.57;;;8.50;99.90;;;;;;5080354;28;20560;-80
2024/03/22 01:40:12;;;;;;;9.50;7.13;;;8.40;99.90;;;;;;5073006;28;20820;-82
2024/03/22 01:42:57;;;;;;;9.53;7.57;;;8.30;99.90;;;;;;5070586;28;20455;-82
2024/03/22 01:45:42;;;;;;;13.97;7.10;;;8.30;99.90;;;;;;5073751;28;20481;-81
2024/03/22 01:48:27;;;;;;;12.10;7.60;;;8.20;99.90;;;;;;5066263;28;20453;-80
2024/03/22 01:51:13;;;;;;;10.27;7.43;;;8.10;99.90;;;;;;5073353;28;20512;-81
2024/03/22 01:54:03;;;;;;;10.90;6.50;;;8.10;99.90;;;;;;5071116;28;20838;-81
2024/03/22 01:56:49;;;;;;;13.23;7.77;;;8.00;99.90;;;;;;5077874;28;20459;-82
2024/03/22 01:59:34;;;;;;;9.83;7.70;;;7.90;99.90;;;;;;5076816;28;20523;-82
2024/03/22 02:02:19;;;;;;;11.60;7.60;;;7.70;99.90;;;;;;5087947;28;20596;-80
2024/03/22 02:05:12;;;;;;;10.20;7.77;;;7.70;99.90;;;;;;5080621;28;20468;-82
2024/03/22 02:07:58;;;;;;;12.40;8.07;;;7.80;99.90;;;;;;5074282;28;20556;-82
2024/03/22 02:10:45;;;;;;;13.03;7.70;;;7.90;99.90;;;;;;5074432;28;20553;-82
2024/03/22 02:13:30;;;;;;;11.27;7.10;;;7.90;99.90;;;;;;5076309;28;20801;-81
2024/03/22 02:16:15;;;;;;;18.30;8.37;;;8.00;99.90;;;;;;5074174;28;20454;-82
2024/03/22 02:19:01;;;;;;;9.47;7.77;;;8.00;99.90;;;;;;5072492;28;20461;-81
2024/03/22 02:21:47;;;;;;;13.03;8.63;;;7.90;99.90;;;;;;5074866;28;20541;-81
2024/03/22 02:24:33;;;;;;;8.97;6.67;;;7.90;99.90;;;;;;5070010;28;21227;-82
2024/03/22 02:27:18;;;;;;;10.50;7.57;;;7.90;99.90;;;;;;5067953;28;20464;-80
2024/03/22 02:30:04;;;;;;;14.80;7.50;;;7.90;99.90;;;;;;5067388;28;20463;-82
2024/03/22 02:32:49;;;;;;;14.30;8.77;;;7.90;99.90;;;;;;5066130;28;20435;-80
2024/03/22 02:35:34;;;;;;;12.07;7.77;;;7.80;99.90;;;;;;5069254;28;20468;-81
2024/03/22 02:38:20;;;;;;;13.60;8.30;;;7.80;99.90;;;;;;5068909;28;20485;-82
2024/03/22 02:41:06;;;;;;;11.37;8.53;;;7.70;99.90;;;;;;5067921;28;20637;-82
2024/03/22 02:43:51;;;;;;;10.73;7.53;;;7.70;99.90;;;;;;5069853;28;20435;-82
2024/03/22 02:46:36;;;;;;;10.00;7.63;;;7.70;99.90;;;;;;5063102;28;20473;-81
2024/03/22 02:49:22;;;;;;;11.57;8.40;;;7.60;99.90;;;;;;5065233;28;20536;-80
2024/03/22 02:52:07;;;;;;;13.80;9.57;;;7.50;99.90;;;;;;5070971;28;20502;-81
2024/03/22 02:54:52;;;;;;;9.47;7.43;;;7.50;99.90;;;;;;5070061;28;20880;-81
2024/03/22 02:57:38;;;;;;;16.30;8.67;;;7.40;99.90;;;;;;5071308;28;20495;-81
2024/03/22 03:00:24;;;;;;;11.90;9.03;;;7.30;99.90;;;;;;5066296;28;22793;-82
2024/03/22 03:03:09;;;;;;;15.97;8.60;;;7.10;99.90;;;;;;5067683;28;20556;-82
2024/03/22 03:05:55;;;;;;;12.93;9.13;;;7.00;99.90;;;;;;5066440;28;20572;-82
2024/03/22 03:08:40;;;;;;;15.90;10.67;;;7.00;99.90;;;;;;5067235;28;20504;-81
2024/03/22 03:11:25;;;;;;;15.93;9.77;;;7.10;99.90;;;;;;5069927;28;20480;-80
2024/03/22 03:14:11;;;;;;;11.93;8.87;;;7.10;99.90;;;;;;5069042;28;20454;-80
2024/03/22 03:16:57;;;;;;;10.57;7.90;;;7.20;99.90;;;;;;5067207;28;20982;-83
2024/03/22 03:19:42;;;;;;;17.63;8.80;;;7.20;99.90;;;;;;5065718;28;20461;-82
2024/03/22 03:22:28;;;;;;;14.03;9.77;;;7.20;99.90;;;;;;5067214;28;20432;-82
2024/03/22 03:25:13;;;;;;;14.37;10.70;;;7.20;99.90;;;;;;5070950;28;20481;-82
2024/03/22 03:27:58;;;;;;;12.40;7.90;;;7.20;99.90;;;;;;5066384;28;20487;-81
2024/03/22 03:30:44;;;;;;;14.23;10.00;;;7.20;99.90;;;;;;5063553;28;20937;-82
2024/03/22 03:33:30;;;;;;;11.53;8.83;;;7.10;99.90;;;;;;5063876;28;20453;-81
2024/03/22 03:36:15;;;;;;;11.67;9.23;;;7.10;99.90;;;;;;5062856;28;20470;-82
2024/03/22 03:39:00;;;;;;;10.80;9.00;;;7.10;99.90;;;;;;5072655;28;21367;-82
2024/03/22 03:41:45;;;;;;;10.67;7.80;;;7.20;99.90;;;;;;5067471;28;21189;-81
2024/03/22 03:44:31;;;;;;;12.17;8.33;;;7.20;99.90;;;;;;5066854;28;20480;-81
2024/03/22 03:47:18;;;;;;;15.67;9.60;;;7.30;99.90;;;;;;5065758;28;21087;-81
2024/03/22 03:50:03;;;;;;;12.50;8.90;;;7.30;99.90;;;;;;5065913;28;20432;-82
2024/03/22 03:52:49;;;;;;;16.00;9.80;;;7.20;99.90;;;;;;5066055;28;20976;-82
2024/03/22 03:55:33;;;;;;;10.30;7.13;;;7.10;99.90;;;;;;5068489;28;20474;-80
2024/03/22 03:58:19;;;;;;;14.40;9.20;;;7.10;99.90;;;;;;5066740;28;20457;-80
2024/03/22 04:01:05;;;;;;;12.93;9.00;;;7.10;99.90;;;;;;5066792;28;20513;-82
2024/03/22 04:03:52;;;;;;;13.07;9.30;;;7.00;99.90;;;;;;5069411;28;20454;-82
2024/03/22 04:06:37;;;;;;;13.87;8.60;;;7.00;99.90;;;;;;5065973;28;20458;-81
2024/03/22 04:09:23;;;;;;;12.27;9.97;;;6.90;99.90;;;;;;5067699;28;20435;-82
2024/03/22 04:12:08;;;;;;;13.97;10.80;;;6.80;99.90;;;;;;5068477;28;20552;-81
2024/03/22 04:14:53;;;;;;;13.23;10.00;;;6.80;99.90;;;;;;5067185;28;21028;-81
2024/03/22 04:17:39;;;;;;;14.70;10.40;;;6.80;99.90;;;;;;5071051;28;20974;-81
2024/03/22 04:20:25;;;;;;;14.00;9.50;;;6.80;99.90;;;;;;5065898;28;20448;-81
2024/03/22 04:23:10;;;;;;;13.40;9.40;;;6.90;99.90;;;;;;5064166;28;20458;-81
2024/03/22 04:25:56;;;;;;;11.67;8.43;;;6.90;99.90;;;;;;5062496;28;20519;-80
2024/03/22 04:28:42;;;;;;;14.47;9.17;;;6.80;99.90;;;;;;5067111;28;20511;-82
2024/03/22 04:31:26;;;;;;;15.57;10.20;;;6.90;99.90;;;;;;5064029;28;20508;-80
2024/03/22 04:34:12;;;;;;;13.10;9.23;;;7.00;99.90;;;;;;5069129;28;20488;-80
2024/03/22 04:36:59;;;;;;;12.90;8.37;;;7.00;99.90;;;;;;5072626;28;20579;-80
2024/03/22 04:39:47;;;;;;;16.80;10.63;;;7.20;99.90;;;;;;5081532;28;20477;-82
2024/03/22 04:42:33;;;;;;;13.20;9.00;;;7.20;99.90;;;;;;5064585;28;20540;-81
2024/03/22 04:45:18;;;;;;;16.50;9.90;;;7.10;99.90;;;;;;5068007;28;20530;-82
2024/03/22 04:48:04;;;;;;;13.40;10.13;;;7.10;99.90;;;;;;5067737;28;20440;-82
2024/03/22 04:50:50;;;;;;;15.27;9.83;;;6.90;99.90;;;;;;5063209;28;20532;-80
2024/03/22 04:53:36;;;;;;;13.70;9.70;;;7.00;99.90;;;;;;5069681;28;20461;-81
2024/03/22 04:56:22;;;;;;;15.40;10.23;;;7.10;99.90;;;;;;5065096;28;20738;-81
2024/03/22 04:59:07;;;;;;;14.53;10.67;;;7.10;99.90;;;;;;5065328;28;20469;-81
2024/03/22 05:01:53;;;;;;;15.83;9.80;;;7.00;99.90;;;;;;5065568;28;20456;-82
2024/03/22 05:04:37;;;;;;;16.43;10.23;;;7.10;99.90;;;;;;5066661;28;20482;-79
2024/03/22 05:07:23;;;;;;;13.60;9.50;;;7.20;99.90;;;;;;5069326;28;20511;-80
2024/03/22 05:10:10;;;;;;;16.30;11.73;;;7.20;99.90;;;;;;5065568;28;20472;-81
2024/03/22 05:12:55;;;;;;;13.43;10.00;;;7.20;99.90;;;;;;5063693;28;20505;-80
2024/03/22 05:15:40;;;;;;;12.47;9.70;;;7.10;99.90;;;;;;5061280;28;20999;-80
2024/03/22 05:18:26;;;;;;;19.43;10.70;;;7.20;99.90;;;;;;5068391;28;20453;-80
2024/03/22 05:21:10;;;;;;;13.97;9.97;;;7.20;99.90;;;;;;5068060;28;20557;-81
2024/03/22 05:23:56;;;;;;;15.80;10.53;;;7.30;99.90;;;;;;5065782;28;20468;-82
2024/03/22 05:26:43;;;;;;;17.37;11.07;;;7.40;99.90;;;;;;5063721;28;20941;-81
2024/03/22 05:29:28;;;;;;;13.80;10.53;;;7.40;99.90;;;;;;5064653;28;20654;-82
2024/03/22 05:32:13;;;;;;;15.97;9.13;;;7.40;99.90;;;;;;5063615;28;20451;-81
2024/03/22 05:34:57;;;;;;;11.83;9.00;;;7.40;99.90;;;;;;5067003;28;20935;-81
2024/03/22 05:37:43;;;;;;;13.30;10.17;;;7.40;99.90;;;;;;5066392;28;20492;-81
2024/03/22 05:40:28;;;;;;;16.10;9.70;;;7.50;99.90;;;;;;5065279;28;20496;-80
2024/03/22 05:43:15;;;;;;;24.20;11.13;;;7.50;99.90;;;;;;5066211;28;21139;-82
2024/03/22 05:45:59;;;;;;;16.35;10.18;;;7.50;99.90;;;;;;5066384;28;20440;-82
2024/03/22 05:48:45;;;;;;;14.23;10.17;;;7.60;99.90;;;;;;5066668;28;20215;-81
2024/03/22 05:51:31;;;;;;;16.10;10.60;;;7.60;99.90;;;;;;5062229;28;20463;-81
2024/03/22 05:54:16;;;;;;;17.27;13.70;;;7.60;99.90;;;;;;5062411;28;22213;-80
2024/03/22 05:57:01;;;;;;;19.87;15.20;;;7.80;99.90;;;;;;5066500;28;20425;-82
2024/03/22 05:59:48;;;;;;;18.23;12.97;;;7.80;99.90;;;;;;5068094;28;20427;-81
2024/03/22 06:02:34;;;;;;;18.83;13.80;;;7.90;99.90;;;;;;5069691;28;20597;-81
2024/03/22 06:05:19;;;;;;;18.00;11.40;;;7.90;99.90;;;;;;5068492;28;20468;-82
2024/03/22 06:08:06;;;;;;;13.70;8.83;;;8.00;99.90;;;;;;5072577;28;20461;-81
2024/03/22 06:10:51;;;;;;;15.63;11.27;;;8.00;99.90;;;;;;5068844;28;20758;-80
2024/03/22 06:13:36;;;;;;;15.40;10.50;;;8.00;99.90;;;;;;5073636;28;20476;-81
2024/03/22 06:16:22;;;;;;;15.97;10.60;;;8.00;99.90;;;;;;5070868;28;20464;-82
2024/03/22 06:19:08;;;;;;;13.60;10.43;;;8.00;99.90;;;;;;5074440;28;20416;-81
2024/03/22 06:21:52;;;;;;;17.60;12.30;;;8.00;99.90;;;;;;5078654;28;20415;-81
2024/03/22 06:24:38;;;;;;;19.30;12.20;;;7.90;99.90;;;;;;5071263;28;20562;-81
2024/03/22 06:27:22;;;;;;;19.43;12.43;;;8.00;99.90;;;;;;5070828;28;21077;-80
2024/03/22 06:30:09;;;;;;;15.73;12.67;;;8.30;99.90;;;;;;5078323;22;20504;-74
2024/03/22 06:32:55;;;;;;;18.63;11.87;;;8.40;99.90;;;;;;5068164;28;20446;-75
2024/03/22 06:35:41;;;;;;;20.47;12.57;;;8.50;99.90;;;;;;5058811;28;20429;-74
2024/03/22 06:38:27;;;;;;;20.20;12.20;;;8.60;99.90;;;;;;5061413;28;20816;-74
2024/03/22 06:41:12;;;;;;;20.67;13.50;;;8.70;99.90;;;;;;5054223;28;21051;-75
2024/03/22 06:43:57;;;;;;;23.90;14.23;;;8.70;99.90;;;;;;5058465;28;20796;-74
2024/03/22 06:46:42;;;;;;;32.70;15.10;;;8.80;99.90;;;;;;5053945;28;20454;-74
2024/03/22 06:49:29;;;;;;;26.43;14.30;;;8.80;99.90;;;;;;5057483;28;20453;-75
2024/03/22 06:52:14;;;;;;;20.10;14.40;;;8.90;99.90;;;;;;5051154;28;20469;-74
2024/03/22 06:55:00;;;;;;;21.07;13.60;;;9.00;99.90;;;;;;5042339;28;20970;-75
2024/03/22 06:57:46;;;;;;;19.00;13.00;;;9.10;99.90;;;;;;5049753;28;20477;-74
2024/03/22 07:00:34;;;;;;;19.47;12.47;;;9.10;99.90;;;;;;5047641;28;20425;-75
2024/03/22 07:03:18;;;;;;;18.33;12.07;;;9.20;99.90;;;;;;5048273;28;20513;-74
2024/03/22 07:06:09;;;;;;;23.90;14.30;;;9.20;99.90;;;;;;5041628;28;20467;-74
2024/03/22 07:08:54;;;;;;;21.57;13.20;;;9.30;99.90;;;;;;5042854;28;20800;-75
2024/03/22 07:11:39;;;;;;;24.53;13.80;;;9.40;99.90;;;;;;5037703;28;20802;-75
2024/03/22 07:14:25;;;;;;;24.40;13.60;;;9.50;99.90;;;;;;5047233;28;20526;-74
2024/03/22 07:17:09;;;;;;;23.47;13.77;;;9.50;99.90;;;;;;5041458;28;20634;-74
2024/03/22 07:19:55;;;;;;;19.80;12.87;;;9.60;99.90;;;;;;5046522;28;20828;-74
2024/03/22 07:22:42;;;;;;;21.40;13.40;;;9.70;99.90;;;;;;5045909;28;20423;-74
2024/03/22 07:25:27;;;;;;;19.50;13.77;;;9.80;99.90;;;;;;5037276;28;20455;-74
2024/03/22 07:28:12;;;;;;;20.77;13.43;;;9.90;99.90;;;;;;5043249;28;20818;-74
2024/03/22 07:30:57;;;;;;;21.03;14.07;;;10.00;99.90;;;;;;5043057;28;20986;-74
2024/03/22 07:33:43;;;;;;;21.90;12.07;;;10.10;99.90;;;;;;5045886;28;20446;-74
2024/03/22 07:36:28;;;;;;;18.70;12.60;;;10.20;99.90;;;;;;5043308;28;20527;-74
2024/03/22 07:39:15;;;;;;;21.60;14.00;;;10.30;99.90;;;;;;5043619;28;20421;-74
2024/03/22 07:41:59;;;;;;;21.80;13.30;;;10.40;99.90;;;;;;5044764;28;21027;-75
2024/03/22 07:44:45;;;;;;;22.10;12.93;;;10.50;99.90;;;;;;5044010;28;20973;-74
2024/03/22 07:47:30;;;;;;;19.20;13.47;;;10.60;99.90;;;;;;5039099;28;20584;-74
2024/03/22 07:50:16;;;;;;;20.43;13.30;;;10.60;99.90;;;;;;5041155;28;20993;-74
2024/03/22 07:53:01;;;;;;;21.30;14.20;;;10.70;99.90;;;;;;5043251;28;20961;-75
2024/03/22 07:55:48;;;;;;;19.37;13.27;;;10.80;99.90;;;;;;5042180;28;20429;-74
2024/03/22 07:58:33;;;;;;;21.53;13.50;;;10.80;99.90;;;;;;5041089;28;20477;-75
2024/03/22 08:01:19;;;;;;;20.50;14.30;;;10.80;99.90;;;;;;5049518;28;20912;-75
2024/03/22 08:04:04;;;;;;;25.80;13.57;;;10.90;99.90;;;;;;5042882;28;20532;-74
2024/03/22 08:06:52;;;;;;;23.67;14.27;;;11.00;99.90;;;;;;5045780;28;20497;-74
2024/03/22 08:09:37;;;;;;;21.33;12.97;;;11.00;99.90;;;;;;5048820;28;22981;-74
2024/03/22 08:12:24;;;;;;;21.60;13.67;;;11.10;99.90;;;;;;5044875;28;20510;-74
2024/03/22 08:15:09;;;;;;;24.93;14.13;;;11.10;99.90;;;;;;5045976;28;20928;-75
2024/03/22 08:17:57;;;;;;;21.60;14.00;;;11.20;99.90;;;;;;5040699;28;20532;-74
2024/03/22 08:20:42;;;;;;;21.57;13.27;;;11.20;99.90;;;;;;5042480;28;20981;-74
2024/03/22 08:23:28;;;;;;;21.93;12.50;;;11.30;99.90;;;;;;5041003;28;20473;-74
2024/03/22 08:26:13;;;;;;;27.47;14.70;;;11.30;99.90;;;;;;5040793;28;20549;-74
2024/03/22 08:29:00;;;;;;;21.37;13.63;;;11.30;99.90;;;;;;5042133;28;21110;-75
2024/03/22 08:31:45;;;;;;;18.67;13.50;;;11.40;99.90;;;;;;5039328;28;20478;-74
2024/03/22 08:34:32;;;;;;;18.37;11.37;;;11.40;99.90;;;;;;5044154;28;20442;-74
2024/03/22 08:37:16;;;;;;;20.37;12.67;;;11.50;99.90;;;;;;5041971;28;20478;-75
2024/03/22 08:40:04;;;;;;;25.73;14.30;;;11.50;99.90;;;;;;5041964;28;20427;-75
2024/03/22 08:42:49;;;;;;;23.10;13.30;;;11.60;99.90;;;;;;5047804;28;20544;-74
2024/03/22 08:45:36;;;;;;;23.80;14.07;;;11.60;99.90;;;;;;5036408;28;20452;-75
2024/03/22 08:48:20;;;;;;;18.27;12.30;;;11.70;99.90;;;;;;5041725;28;20613;-75
2024/03/22 08:51:06;;;;;;;20.90;13.90;;;11.70;99.90;;;;;;5049396;28;20421;-75
2024/03/22 08:53:51;;;;;;;20.10;14.07;;;11.70;99.90;;;;;;5037827;28;20780;-75
2024/03/22 08:56:37;;;;;;;19.97;13.93;;;11.70;99.90;;;;;;5044151;28;20474;-75
2024/03/22 08:59:23;;;;;;;19.23;12.63;;;11.80;99.90;;;;;;5037839;28;20690;-75
2024/03/22 09:02:11;;;;;;;20.43;12.00;;;11.90;99.90;;;;;;5038545;28;20443;-75
2024/03/22 09:04:55;;;;;;;23.37;14.07;;;11.90;99.90;;;;;;5046908;28;20447;-75
2024/03/22 09:07:41;;;;;;;23.20;12.63;;;12.00;99.90;;;;;;5041688;28;21285;-75
2024/03/22 09:10:26;;;;;;;26.63;12.40;;;12.10;99.90;;;;;;5038341;28;20458;-75
2024/03/22 09:13:12;;;;;;;21.27;13.37;;;12.10;99.90;;;;;;5046106;28;20525;-75
2024/03/22 09:15:57;;;;;;;18.10;13.37;;;12.20;99.90;;;;;;5038837;28;20545;-75
2024/03/22 09:18:44;;;;;;;21.80;12.57;;;12.20;99.90;;;;;;5039221;28;20460;-75
2024/03/22 09:21:31;;;;;;;20.70;12.77;;;12.30;99.90;;;;;;5039552;28;21814;-75
2024/03/22 09:24:17;;;;;;;24.57;12.70;;;12.40;99.90;;;;;;5040041;28;20513;-75
2024/03/22 09:27:04;;;;;;;19.53;13.07;;;12.50;99.90;;;;;;5040385;28;20507;-74
2024/03/22 09:29:50;;;;;;;14.27;10.90;;;12.60;99.90;;;;;;5039463;28;20468;-75
2024/03/22 09:32:34;;;;;;;19.20;11.70;;;12.70;99.90;;;;;;5040817;28;20473;-75
2024/03/22 09:35:21;;;;;;;18.27;11.40;;;12.70;99.90;;;;;;5044835;28;20451;-75
2024/03/22 09:38:07;;;;;;;18.00;10.90;;;12.80;99.90;;;;;;5040739;28;21015;-75
2024/03/22 09:40:54;;;;;;;14.70;10.33;;;13.00;99.90;;;;;;5047326;28;20443;-75
2024/03/22 09:43:39;;;;;;;19.20;12.30;;;13.00;99.90;;;;;;5047980;28;21479;-75
2024/03/22 09:46:25;;;;;;;19.00;11.13;;;13.20;99.90;;;;;;5043954;28;20479;-75
2024/03/22 09:49:10;;;;;;;20.00;11.40;;;13.30;99.90;;;;;;5041888;28;20455;-75
2024/03/22 09:51:57;;;;;;;12.00;7.10;;;13.40;99.90;;;;;;5040065;28;20980;-76
2024/03/22 09:54:42;;;;;;;8.43;6.20;;;13.60;99.90;;;;;;5043447;28;20433;-75
2024/03/22 09:57:28;;;;;;;10.50;6.67;;;13.70;99.90;;;;;;5039560;28;20483;-75
2024/03/22 10:00:14;;;;;;;12.40;6.50;;;13.90;99.90;;;;;;5049673;28;20948;-75
2024/03/22 10:03:01;;;;;;;10.80;5.83;;;14.10;99.90;;;;;;5041088;28;20447;-75
2024/03/22 10:05:46;;;;;;;9.50;5.70;;;14.20;99.90;;;;;;5042944;28;20456;-75
2024/03/22 10:08:35;;;;;;;11.50;6.73;;;14.40;99.90;;;;;;5042308;28;20446;-75
2024/03/22 10:11:20;;;;;;;10.30;6.17;;;14.60;99.90;;;;;;5041417;28;20528;-74
2024/03/22 10:14:05;;;;;;;7.83;5.77;;;14.60;94.20;;;;;;5040467;28;20431;-75
2024/03/22 10:16:53;;;;;;;11.67;6.07;;;14.70;94.60;;;;;;5041794;28;20465;-74
2024/03/22 10:19:37;;;;;;;12.80;6.70;;;14.70;95.10;;;;;;5046147;28;20467;-75
2024/03/22 10:22:24;;;;;;;13.37;6.50;;;14.80;94.80;;;;;;5039840;28;20509;-75
2024/03/22 10:25:11;;;;;;;10.27;6.80;;;14.80;93.90;;;;;;5040114;28;20442;-75
2024/03/22 10:27:59;;;;;;;9.53;5.70;;;14.70;91.30;;;;;;5043865;28;20450;-75
2024/03/22 10:30:44;;;;;;;13.47;7.10;;;14.80;92.00;;;;;;5040203;28;21121;-75
2024/03/22 10:33:31;;;;;;;11.60;7.00;;;14.80;91.80;;;;;;5039844;28;20480;-75
2024/03/22 10:36:16;;;;;;;11.00;7.47;;;14.80;91.80;;;;;;5038897;28;20451;-75
2024/03/22 10:39:04;;;;;;;11.87;7.20;;;14.80;91.70;;;;;;5042304;28;20454;-75
2024/03/22 10:41:51;;;;;;;12.27;7.53;;;14.90;92.60;;;;;;5041810;28;21118;-75
2024/03/22 10:44:36;;;;;;;12.37;7.90;;;14.90;91.90;;;;;;5041879;28;20771;-75
2024/03/22 10:47:24;;;;;;;14.40;7.40;;;14.80;92.50;;;;;;5046308;28;20466;-74
2024/03/22 10:50:11;;;;;;;12.50;7.60;;;14.90;92.70;;;;;;5044871;28;20941;-77
2024/03/22 10:53:02;;;;;;;11.77;8.17;;;14.90;91.70;;;;;;5042627;28;20580;-77
2024/03/22 10:55:49;;;;;;;13.27;7.50;;;15.00;92.40;;;;;;5047020;28;20419;-77
2024/03/22 10:58:42;;;;;;;11.37;7.80;;;15.10;92.80;;;;;;5050337;28;22253;-77
2024/03/22 11:01:29;;;;;;;11.97;8.80;;;15.10;92.50;;;;;;5049294;28;20409;-77
2024/03/22 11:04:18;;;;;;;11.23;7.70;;;15.20;92.70;;;;;;5051995;28;20490;-77
2024/03/22 11:07:03;;;;;;;18.13;7.83;;;15.20;91.80;;;;;;5051626;28;20554;-76
2024/03/22 11:09:53;;;;;;;12.57;7.57;;;15.20;91.70;;;;;;5045923;28;20403;-76
2024/03/22 11:12:38;;;;;;;9.80;7.33;;;15.20;91.90;;;;;;5052963;28;21192;-76
2024/03/22 11:15:24;;;;;;;13.00;8.00;;;15.20;91.80;;;;;;5052640;28;20766;-77
2024/03/22 11:18:09;;;;;;;13.13;7.90;;;15.20;91.40;;;;;;5047572;28;20445;-76
2024/03/22 11:20:55;;;;;;;13.93;6.93;;;15.20;91.70;;;;;;5046625;28;20402;-76
2024/03/22 11:23:40;;;;;;;13.73;7.27;;;15.20;90.40;;;;;;5045706;28;20999;-76
2024/03/22 11:26:26;;;;;;;9.87;6.60;;;15.20;91.10;;;;;;5048255;28;20420;-76
2024/03/22 11:29:10;;;;;;;10.90;7.67;;;15.20;91.70;;;;;;5059986;28;20791;-78
2024/03/22 11:31:57;;;;;;;8.90;6.80;;;15.30;89.00;;;;;;5042508;28;20527;-78
2024/03/22 11:34:44;;;;;;;8.57;6.47;;;15.30;89.80;;;;;;5047844;28;20447;-78
2024/03/22 11:37:29;;;;;;;10.47;7.30;;;15.40;90.30;;;;;;5044960;28;20649;-77
2024/03/22 11:40:14;;;;;;;10.97;6.53;;;15.50;90.30;;;;;;5047319;28;20513;-75
2024/03/22 11:43:00;;;;;;;9.73;6.60;;;15.60;91.60;;;;;;5048029;28;20482;-76
2024/03/22 11:45:45;;;;;;;12.93;8.07;;;15.70;90.20;;;;;;5052989;28;20561;-76
2024/03/22 11:48:33;;;;;;;13.50;7.20;;;15.90;89.50;;;;;;5046560;28;20472;-75
2024/03/22 11:51:17;;;;;;;10.43;8.30;;;16.00;84.30;;;;;;5050567;28;21088;-75
2024/03/22 11:54:05;;;;;;;9.93;7.03;;;16.00;84.30;;;;;;5051238;28;20451;-76
2024/03/22 11:56:50;;;;;;;14.50;8.03;;;16.00;88.20;;;;;;5051212;28;20910;-76
2024/03/22 11:59:35;;;;;;;10.80;7.27;;;16.20;84.60;;;;;;5050813;28;20799;-75
2024/03/22 12:02:20;;;;;;;14.50;7.87;;;16.30;79.10;;;;;;5046243;28;20799;-76
2024/03/22 12:05:08;;;;;;;11.33;7.00;;;16.40;78.30;;;;;;5040914;28;21086;-76
2024/03/22 12:07:53;;;;;;;10.60;6.30;;;16.60;78.00;;;;;;5050974;28;20438;-77
2024/03/22 12:10:38;;;;;;;14.20;6.43;;;16.70;78.40;;;;;;5043242;28;20471;-75
2024/03/22 12:13:23;;;;;;;7.80;5.80;;;16.70;73.60;;;;;;5047442;28;20466;-75
2024/03/22 12:16:08;;;;;;;9.47;6.53;;;16.90;76.50;;;;;;5046845;28;20427;-75
2024/03/22 12:18:53;;;;;;;11.53;6.40;;;16.90;73.80;;;;;;5049914;28;20456;-75
2024/03/22 12:21:40;;;;;;;12.80;7.10;;;16.90;74.00;;;;;;5047816;28;20470;-75
2024/03/22 12:24:24;;;;;;;11.60;6.40;;;16.90;75.30;;;;;;5048845;28;20814;-75
2024/03/22 12:27:10;;;;;;;6.10;5.17;;;16.90;73.00;;;;;;5048783;28;20507;-75
2024/03/22 12:29:55;;;;;;;8.83;5.20;;;16.80;70.50;;;;;;5044302;28;20445;-75
2024/03/22 12:35:53;;;;;;;6.13;5.30;;;16.80;68.70;;;;;;5046754;28;20479;-75
2024/03/22 12:38:40;;;;;;;10.70;5.20;;;16.80;69.10;;;;;;5051162;28;20450;-75
2024/03/22 12:41:26;;;;;;;8.70;5.00;;;16.70;71.00;;;;;;5045463;28;20434;-75
2024/03/22 12:44:11;;;;;;;9.10;5.80;;;16.80;70.40;;;;;;5050189;28;20578;-76
2024/03/22 12:46:56;;;;;;;7.33;5.97;;;16.70;68.10;;;;;;5046687;28;20462;-75
2024/03/22 12:49:41;;;;;;;8.10;5.97;;;16.70;68.60;;;;;;5055728;28;20443;-75
2024/03/22 12:52:27;;;;;;;9.37;6.10;;;16.70;69.30;;;;;;5045441;28;20464;-76
2024/03/22 12:55:13;;;;;;;10.07;5.53;;;16.80;68.50;;;;;;5053331;28;20484;-75
2024/03/22 12:57:58;;;;;;;9.27;6.27;;;16.90;69.10;;;;;;5047994;28;20796;-75
2024/03/22 13:00:43;;;;;;;8.87;5.80;;;17.00;66.60;;;;;;5042027;28;20454;-75
2024/03/22 13:03:29;;;;;;;10.50;5.43;;;17.10;65.40;;;;;;5054509;28;20469;-76
2024/03/22 13:06:14;;;;;;;7.57;5.50;;;17.30;65.20;;;;;;5043120;28;20457;-75
2024/03/22 13:08:59;;;;;;;8.50;5.37;;;17.50;65.70;;;;;;5048788;28;20468;-76
2024/03/22 13:11:46;;;;;;;12.57;6.33;;;17.70;60.40;;;;;;5045244;28;20441;-76
2024/03/22 13:14:31;;;;;;;7.70;5.50;;;17.80;56.90;;;;;;5050484;28;21040;-76
2024/03/22 13:17:17;;;;;;;7.00;5.60;;;18.00;57.50;;;;;;5047503;28;20477;-75
2024/03/22 13:20:05;;;;;;;13.93;6.40;;;18.10;53.70;;;;;;5046303;28;20471;-75
2024/03/22 13:22:50;;;;;;;12.03;8.40;;;18.00;53.80;;;;;;5050113;28;20957;-75
2024/03/22 13:25:36;;;;;;;8.23;5.50;;;18.00;54.60;;;;;;5053402;28;20455;-75
2024/03/22 13:28:23;;;;;;;11.53;5.70;;;18.10;52.60;;;;;;5044265;28;20518;-75
2024/03/22 13:31:08;;;;;;;6.53;4.90;;;18.10;49.90;;;;;;5040528;28;20441;-76
2024/03/22 13:33:54;;;;;;;14.03;7.40;;;18.10;53.20;;;;;;5051638;28;20492;-75
2024/03/22 13:36:38;;;;;;;13.40;5.40;;;18.40;51.60;;;;;;5050046;28;20484;-75
2024/03/22 13:39:24;;;;;;;10.37;5.63;;;18.80;46.30;;;;;;5046136;28;20482;-76
2024/03/22 13:42:09;;;;;;;8.70;4.87;;;19.30;40.90;;;;;;5047896;28;20544;-76
2024/03/22 13:44:57;;;;;;;12.27;4.90;;;19.60;37.30;;;;;;5053476;28;20463;-76
2024/03/22 13:47:42;;;;;;;7.97;4.83;;;19.90;35.00;;;;;;5053705;28;20447;-75
2024/03/22 13:50:28;;;;;;;5.23;4.13;;;19.80;29.50;;;;;;5048867;28;20989;-75
2024/03/22 13:53:15;;;;;;;9.87;3.60;;;19.80;31.40;;;;;;5057091;28;20610;-75
2024/03/22 13:56:00;;;;;;;6.23;4.50;;;19.70;30.10;;;;;;5049239;28;20459;-76
2024/03/22 13:58:46;;;;;;;7.50;5.10;;;19.50;30.30;;;;;;5046840;28;20453;-76
2024/03/22 14:01:33;;;;;;;15.40;5.37;;;19.60;29.30;;;;;;5048912;28;20483;-76
2024/03/22 14:04:19;;;;;;;8.93;4.50;;;19.70;29.20;;;;;;5044508;28;20573;-76
2024/03/22 14:07:06;;;;;;;7.33;4.77;;;19.70;28.50;;;;;;5042854;28;20471;-76
2024/03/22 14:09:50;;;;;;;7.40;4.77;;;19.60;30.40;;;;;;5045839;28;20935;-76
2024/03/22 14:12:36;;;;;;;7.53;5.20;;;19.40;29.90;;;;;;5051370;28;20478;-75
2024/03/22 14:15:20;;;;;;;17.10;8.03;;;19.10;30.40;;;;;;5051322;28;20833;-76
2024/03/22 14:18:07;;;;;;;13.03;8.30;;;18.90;33.80;;;;;;5045952;28;20473;-75